sensor_id;sensor_type;location;lat;lon;timestamp;P1;durP1;ratioP1;P2;durP2;ratioP2
13483;SDS011;6814;57.786;12.080;2024-02-04T13:23:56;13.63;;;3.50;;
13483;SDS011;6814;57.786;12.080;2024-02-04T13:26:23;13.57;;;3.47;;
13483;SDS011;6814;57.786;12.080;2024-02-04T13:28:49;15.50;;;3.50;;
13483;SDS011;6814;57.786;12.080;2024-02-04T13:31:16;12.30;;;4.03;;
13483;SDS011;6814;57.786;12.080;2024-02-04T13:33:43;16.50;;;3.00;;
13483;SDS011;6814;57.786;12.080;2024-02-04T13:36:09;14.57;;;3.17;;
13483;SDS011;6814;57.786;12.080;2024-02-04T13:38:36;16.03;;;3.97;;
13483;SDS011;6814;57.786;12.080;2024-02-04T13:41:06;13.40;;;3.47;;
13483;SDS011;6814;57.786;12.080;2024-02-04T13:43:33;14.23;;;3.00;;
13483;SDS011;6814;57.786;12.080;2024-02-04T13:46:00;14.07;;;2.80;;
13483;SDS011;6814;57.786;12.080;2024-02-04T13:48:26;15.97;;;3.50;;
13483;SDS011;6814;57.786;12.080;2024-02-04T13:51:07;15.27;;;3.60;;
13483;SDS011;6814;57.786;12.080;2024-02-04T13:53:34;14.30;;;3.37;;
13483;SDS011;6814;57.786;12.080;2024-02-04T13:56:16;13.20;;;3.53;;
13483;SDS011;6814;57.786;12.080;2024-02-04T13:58:44;10.83;;;3.07;;
13483;SDS011;6814;57.786;12.080;2024-02-04T14:01:10;17.23;;;3.80;;
13483;SDS011;6814;57.786;12.080;2024-02-04T14:03:38;11.10;;;2.43;;
13483;SDS011;6814;57.786;12.080;2024-02-04T14:06:05;18.60;;;4.30;;
13483;SDS011;6814;57.786;12.080;2024-02-04T14:08:31;14.70;;;3.93;;
13483;SDS011;6814;57.786;12.080;2024-02-04T14:10:58;23.73;;;3.93;;
13483;SDS011;6814;57.786;12.080;2024-02-04T14:13:26;19.63;;;4.13;;
13483;SDS011;6814;57.786;12.080;2024-02-04T14:15:53;16.47;;;3.83;;
13483;SDS011;6814;57.786;12.080;2024-02-04T14:18:19;15.20;;;3.00;;
13483;SDS011;6814;57.786;12.080;2024-02-04T14:20:47;22.00;;;4.10;;
13483;SDS011;6814;57.786;12.080;2024-02-04T14:23:14;18.50;;;5.03;;
13483;SDS011;6814;57.786;12.080;2024-02-04T14:25:40;15.17;;;4.80;;
13483;SDS011;6814;57.786;12.080;2024-02-04T14:28:07;17.23;;;4.27;;
13483;SDS011;6814;57.786;12.080;2024-02-04T14:30:35;16.97;;;5.07;;
13483;SDS011;6814;57.786;12.080;2024-02-04T14:33:01;15.60;;;3.83;;
13483;SDS011;6814;57.786;12.080;2024-02-04T14:35:28;19.87;;;4.17;;
13483;SDS011;6814;57.786;12.080;2024-02-04T14:37:55;23.50;;;5.57;;
13483;SDS011;6814;57.786;12.080;2024-02-04T14:40:22;13.50;;;3.33;;
13483;SDS011;6814;57.786;12.080;2024-02-04T14:42:49;16.93;;;3.43;;
13483;SDS011;6814;57.786;12.080;2024-02-04T14:45:21;24.80;;;4.73;;
13483;SDS011;6814;57.786;12.080;2024-02-04T14:47:49;14.73;;;3.73;;
13483;SDS011;6814;57.786;12.080;2024-02-04T14:50:16;17.37;;;3.83;;
13483;SDS011;6814;57.786;12.080;2024-02-04T14:52:43;24.37;;;4.93;;
13483;SDS011;6814;57.786;12.080;2024-02-04T14:55:10;19.70;;;4.27;;
13483;SDS011;6814;57.786;12.080;2024-02-04T14:57:37;17.57;;;3.53;;
13483;SDS011;6814;57.786;12.080;2024-02-04T15:00:15;21.53;;;5.27;;
13483;SDS011;6814;57.786;12.080;2024-02-04T15:02:46;17.67;;;3.57;;
13483;SDS011;6814;57.786;12.080;2024-02-04T15:05:14;19.63;;;3.93;;
13483;SDS011;6814;57.786;12.080;2024-02-04T15:07:41;15.57;;;3.47;;
13483;SDS011;6814;57.786;12.080;2024-02-04T15:10:07;23.50;;;4.07;;
13483;SDS011;6814;57.786;12.080;2024-02-04T15:12:35;25.03;;;5.53;;
13483;SDS011;6814;57.786;12.080;2024-02-04T15:15:02;27.87;;;4.97;;
13483;SDS011;6814;57.786;12.080;2024-02-04T15:17:29;28.60;;;5.33;;
13483;SDS011;6814;57.786;12.080;2024-02-04T15:19:56;22.00;;;4.57;;
13483;SDS011;6814;57.786;12.080;2024-02-04T15:22:25;24.33;;;4.83;;
13483;SDS011;6814;57.786;12.080;2024-02-04T15:24:52;22.20;;;4.63;;
13483;SDS011;6814;57.786;12.080;2024-02-04T15:27:19;28.33;;;4.47;;
13483;SDS011;6814;57.786;12.080;2024-02-04T15:29:46;24.00;;;5.10;;
13483;SDS011;6814;57.786;12.080;2024-02-04T15:32:14;26.77;;;5.00;;
13483;SDS011;6814;57.786;12.080;2024-02-04T15:34:41;31.10;;;5.83;;
13483;SDS011;6814;57.786;12.080;2024-02-04T15:37:07;24.23;;;4.57;;
13483;SDS011;6814;57.786;12.080;2024-02-04T15:39:36;20.23;;;4.37;;
13483;SDS011;6814;57.786;12.080;2024-02-04T15:42:03;28.80;;;6.20;;
13483;SDS011;6814;57.786;12.080;2024-02-04T15:44:30;19.97;;;4.80;;
13483;SDS011;6814;57.786;12.080;2024-02-04T15:46:58;26.53;;;5.50;;
13483;SDS011;6814;57.786;12.080;2024-02-04T15:49:25;24.40;;;4.70;;
13483;SDS011;6814;57.786;12.080;2024-02-04T15:51:53;23.63;;;5.40;;
13483;SDS011;6814;57.786;12.080;2024-02-04T15:54:20;28.40;;;5.57;;
13483;SDS011;6814;57.786;12.080;2024-02-04T15:56:48;34.00;;;5.57;;
13483;SDS011;6814;57.786;12.080;2024-02-04T15:59:18;25.83;;;5.30;;
13483;SDS011;6814;57.786;12.080;2024-02-04T16:01:47;30.67;;;5.43;;
13483;SDS011;6814;57.786;12.080;2024-02-04T16:04:14;25.03;;;6.23;;
13483;SDS011;6814;57.786;12.080;2024-02-04T16:06:42;33.57;;;7.40;;
13483;SDS011;6814;57.786;12.080;2024-02-04T16:09:09;25.47;;;5.83;;
13483;SDS011;6814;57.786;12.080;2024-02-04T16:11:40;24.30;;;5.57;;
13483;SDS011;6814;57.786;12.080;2024-02-04T16:14:10;29.10;;;7.00;;
13483;SDS011;6814;57.786;12.080;2024-02-04T16:16:38;30.10;;;5.27;;
13483;SDS011;6814;57.786;12.080;2024-02-04T16:19:07;33.40;;;8.27;;
13483;SDS011;6814;57.786;12.080;2024-02-04T16:21:34;27.20;;;5.90;;
13483;SDS011;6814;57.786;12.080;2024-02-04T16:24:03;33.30;;;6.53;;
13483;SDS011;6814;57.786;12.080;2024-02-04T16:26:31;30.40;;;6.33;;
13483;SDS011;6814;57.786;12.080;2024-02-04T16:28:59;37.27;;;6.17;;
13483;SDS011;6814;57.786;12.080;2024-02-04T16:31:32;30.37;;;6.07;;
13483;SDS011;6814;57.786;12.080;2024-02-04T16:33:59;29.37;;;6.03;;
13483;SDS011;6814;57.786;12.080;2024-02-04T16:36:39;22.07;;;4.53;;
13483;SDS011;6814;57.786;12.080;2024-02-04T16:39:06;31.83;;;7.33;;
13483;SDS011;6814;57.786;12.080;2024-02-04T16:41:38;30.40;;;5.93;;
13483;SDS011;6814;57.786;12.080;2024-02-04T16:44:05;35.33;;;5.63;;
13483;SDS011;6814;57.786;12.080;2024-02-04T16:46:33;29.30;;;5.53;;
13483;SDS011;6814;57.786;12.080;2024-02-04T16:48:59;24.13;;;5.67;;
13483;SDS011;6814;57.786;12.080;2024-02-04T16:51:26;28.97;;;6.33;;
13483;SDS011;6814;57.786;12.080;2024-02-04T16:53:53;31.53;;;5.43;;
13483;SDS011;6814;57.786;12.080;2024-02-04T16:56:19;34.30;;;6.07;;
13483;SDS011;6814;57.786;12.080;2024-02-04T16:58:49;28.17;;;5.37;;
13483;SDS011;6814;57.786;12.080;2024-02-04T17:01:16;24.90;;;5.57;;
13483;SDS011;6814;57.786;12.080;2024-02-04T17:03:45;25.67;;;5.73;;
13483;SDS011;6814;57.786;12.080;2024-02-04T17:06:11;20.37;;;4.33;;
13483;SDS011;6814;57.786;12.080;2024-02-04T17:08:39;18.13;;;3.70;;
13483;SDS011;6814;57.786;12.080;2024-02-04T17:11:06;34.43;;;6.90;;
13483;SDS011;6814;57.786;12.080;2024-02-04T17:13:34;25.13;;;5.00;;
13483;SDS011;6814;57.786;12.080;2024-02-04T17:16:01;25.93;;;5.03;;
13483;SDS011;6814;57.786;12.080;2024-02-04T17:18:32;28.83;;;5.53;;
13483;SDS011;6814;57.786;12.080;2024-02-04T17:21:04;24.30;;;5.67;;
13483;SDS011;6814;57.786;12.080;2024-02-04T17:23:33;22.50;;;4.60;;
13483;SDS011;6814;57.786;12.080;2024-02-04T17:26:04;26.60;;;5.17;;
13483;SDS011;6814;57.786;12.080;2024-02-04T17:28:32;23.83;;;4.47;;
13483;SDS011;6814;57.786;12.080;2024-02-04T17:30:59;35.00;;;6.70;;
13483;SDS011;6814;57.786;12.080;2024-02-04T17:33:29;30.23;;;5.90;;
13483;SDS011;6814;57.786;12.080;2024-02-04T17:35:56;26.87;;;6.77;;
13483;SDS011;6814;57.786;12.080;2024-02-04T17:38:25;26.13;;;5.63;;
13483;SDS011;6814;57.786;12.080;2024-02-04T17:41:02;28.13;;;6.27;;
13483;SDS011;6814;57.786;12.080;2024-02-04T17:46:26;25.10;;;5.13;;
13483;SDS011;6814;57.786;12.080;2024-02-04T17:49:02;23.23;;;5.33;;
13483;SDS011;6814;57.786;12.080;2024-02-04T17:51:30;35.07;;;6.07;;
13483;SDS011;6814;57.786;12.080;2024-02-04T17:53:58;23.50;;;4.50;;
13483;SDS011;6814;57.786;12.080;2024-02-04T17:56:25;25.90;;;4.53;;
13483;SDS011;6814;57.786;12.080;2024-02-04T17:58:51;19.03;;;4.43;;
13483;SDS011;6814;57.786;12.080;2024-02-04T18:01:18;21.77;;;5.07;;
13483;SDS011;6814;57.786;12.080;2024-02-04T18:03:45;24.13;;;5.27;;
13483;SDS011;6814;57.786;12.080;2024-02-04T18:06:11;17.90;;;4.20;;
13483;SDS011;6814;57.786;12.080;2024-02-04T18:08:38;23.13;;;4.67;;
13483;SDS011;6814;57.786;12.080;2024-02-04T18:11:15;23.27;;;5.47;;
13483;SDS011;6814;57.786;12.080;2024-02-04T18:13:42;22.43;;;5.17;;
13483;SDS011;6814;57.786;12.080;2024-02-04T18:16:09;25.20;;;5.00;;
13483;SDS011;6814;57.786;12.080;2024-02-04T18:18:35;21.63;;;4.87;;
13483;SDS011;6814;57.786;12.080;2024-02-04T18:21:02;18.37;;;3.83;;
13483;SDS011;6814;57.786;12.080;2024-02-04T18:23:29;22.07;;;4.07;;
13483;SDS011;6814;57.786;12.080;2024-02-04T18:25:56;19.90;;;4.20;;
13483;SDS011;6814;57.786;12.080;2024-02-04T18:28:24;22.37;;;4.37;;
13483;SDS011;6814;57.786;12.080;2024-02-04T18:30:50;21.33;;;4.17;;
13483;SDS011;6814;57.786;12.080;2024-02-04T18:33:17;25.00;;;4.80;;
13483;SDS011;6814;57.786;12.080;2024-02-04T18:35:43;23.23;;;5.23;;
13483;SDS011;6814;57.786;12.080;2024-02-04T18:38:10;21.73;;;4.00;;
13483;SDS011;6814;57.786;12.080;2024-02-04T18:40:37;27.50;;;5.13;;
13483;SDS011;6814;57.786;12.080;2024-02-04T18:43:04;19.37;;;4.23;;
13483;SDS011;6814;57.786;12.080;2024-02-04T18:45:32;20.87;;;4.97;;
13483;SDS011;6814;57.786;12.080;2024-02-04T18:48:02;23.13;;;3.90;;
13483;SDS011;6814;57.786;12.080;2024-02-04T18:50:31;18.40;;;4.17;;
13483;SDS011;6814;57.786;12.080;2024-02-04T18:52:58;15.40;;;3.10;;
13483;SDS011;6814;57.786;12.080;2024-02-04T18:55:25;13.67;;;2.80;;
13483;SDS011;6814;57.786;12.080;2024-02-04T18:57:51;11.23;;;2.37;;
13483;SDS011;6814;57.786;12.080;2024-02-04T19:00:18;15.27;;;3.07;;
13483;SDS011;6814;57.786;12.080;2024-02-04T19:02:46;17.23;;;3.57;;
13483;SDS011;6814;57.786;12.080;2024-02-04T19:05:14;19.23;;;3.23;;
13483;SDS011;6814;57.786;12.080;2024-02-04T19:07:41;15.60;;;2.70;;
13483;SDS011;6814;57.786;12.080;2024-02-04T19:10:07;9.67;;;2.23;;
13483;SDS011;6814;57.786;12.080;2024-02-04T19:12:35;14.13;;;2.80;;
13483;SDS011;6814;57.786;12.080;2024-02-04T19:15:06;7.60;;;2.13;;
13483;SDS011;6814;57.786;12.080;2024-02-04T19:17:32;7.53;;;2.13;;
13483;SDS011;6814;57.786;12.080;2024-02-04T19:20:06;9.70;;;1.97;;
13483;SDS011;6814;57.786;12.080;2024-02-04T19:22:33;13.93;;;2.07;;
13483;SDS011;6814;57.786;12.080;2024-02-04T19:25:00;14.77;;;3.40;;
13483;SDS011;6814;57.786;12.080;2024-02-04T19:27:29;11.50;;;3.00;;
13483;SDS011;6814;57.786;12.080;2024-02-04T19:29:55;8.37;;;1.97;;
13483;SDS011;6814;57.786;12.080;2024-02-04T19:32:22;12.37;;;2.20;;
13483;SDS011;6814;57.786;12.080;2024-02-04T19:34:48;8.47;;;2.57;;
13483;SDS011;6814;57.786;12.080;2024-02-04T19:37:16;8.57;;;2.00;;
13483;SDS011;6814;57.786;12.080;2024-02-04T19:39:43;11.77;;;2.37;;
13483;SDS011;6814;57.786;12.080;2024-02-04T19:42:10;10.67;;;2.93;;
13483;SDS011;6814;57.786;12.080;2024-02-04T19:44:42;11.63;;;2.23;;
13483;SDS011;6814;57.786;12.080;2024-02-04T19:47:09;9.50;;;2.27;;
13483;SDS011;6814;57.786;12.080;2024-02-04T19:49:36;10.83;;;3.27;;
13483;SDS011;6814;57.786;12.080;2024-02-04T19:52:07;7.47;;;2.00;;
13483;SDS011;6814;57.786;12.080;2024-02-04T19:54:35;8.07;;;2.00;;
13483;SDS011;6814;57.786;12.080;2024-02-04T19:57:02;16.07;;;2.53;;
13483;SDS011;6814;57.786;12.080;2024-02-04T19:59:29;12.93;;;3.27;;
13483;SDS011;6814;57.786;12.080;2024-02-04T20:01:55;14.37;;;3.23;;
13483;SDS011;6814;57.786;12.080;2024-02-04T20:04:23;10.47;;;2.23;;
13483;SDS011;6814;57.786;12.080;2024-02-04T20:06:50;14.10;;;2.90;;
13483;SDS011;6814;57.786;12.080;2024-02-04T20:09:18;10.77;;;2.43;;
13483;SDS011;6814;57.786;12.080;2024-02-04T20:11:46;12.93;;;2.17;;
13483;SDS011;6814;57.786;12.080;2024-02-04T20:14:15;13.90;;;2.63;;
13483;SDS011;6814;57.786;12.080;2024-02-04T20:16:42;16.60;;;3.37;;
13483;SDS011;6814;57.786;12.080;2024-02-04T20:19:09;16.07;;;2.73;;
13483;SDS011;6814;57.786;12.080;2024-02-04T20:21:36;8.50;;;2.20;;
13483;SDS011;6814;57.786;12.080;2024-02-04T20:24:03;11.23;;;2.93;;
13483;SDS011;6814;57.786;12.080;2024-02-04T20:26:30;11.77;;;2.67;;
13483;SDS011;6814;57.786;12.080;2024-02-04T20:28:58;11.97;;;2.93;;
13483;SDS011;6814;57.786;12.080;2024-02-04T20:31:24;12.97;;;3.00;;
13483;SDS011;6814;57.786;12.080;2024-02-04T20:33:51;12.57;;;2.40;;
13483;SDS011;6814;57.786;12.080;2024-02-04T20:36:18;11.13;;;2.70;;
13483;SDS011;6814;57.786;12.080;2024-02-04T20:38:45;7.77;;;1.77;;
13483;SDS011;6814;57.786;12.080;2024-02-04T20:41:12;10.50;;;2.53;;
13483;SDS011;6814;57.786;12.080;2024-02-04T20:43:39;8.33;;;2.20;;
13483;SDS011;6814;57.786;12.080;2024-02-04T20:46:07;12.47;;;2.40;;
13483;SDS011;6814;57.786;12.080;2024-02-04T20:48:35;7.17;;;2.00;;
13483;SDS011;6814;57.786;12.080;2024-02-04T20:51:02;10.70;;;2.30;;
13483;SDS011;6814;57.786;12.080;2024-02-04T20:53:29;11.27;;;2.30;;
13483;SDS011;6814;57.786;12.080;2024-02-04T20:55:56;8.30;;;2.27;;
13483;SDS011;6814;57.786;12.080;2024-02-04T20:58:23;8.57;;;1.77;;
13483;SDS011;6814;57.786;12.080;2024-02-04T21:00:50;17.73;;;2.57;;
13483;SDS011;6814;57.786;12.080;2024-02-04T21:03:18;7.23;;;2.00;;
13483;SDS011;6814;57.786;12.080;2024-02-04T21:05:44;14.97;;;3.07;;
13483;SDS011;6814;57.786;12.080;2024-02-04T21:08:11;11.03;;;2.70;;
13483;SDS011;6814;57.786;12.080;2024-02-04T21:10:38;15.37;;;3.10;;
13483;SDS011;6814;57.786;12.080;2024-02-04T21:13:05;11.10;;;2.23;;
13483;SDS011;6814;57.786;12.080;2024-02-04T21:15:31;11.87;;;1.93;;
13483;SDS011;6814;57.786;12.080;2024-02-04T21:18:01;8.23;;;2.03;;
13483;SDS011;6814;57.786;12.080;2024-02-04T21:20:30;11.17;;;2.33;;
13483;SDS011;6814;57.786;12.080;2024-02-04T21:22:56;12.23;;;2.50;;
13483;SDS011;6814;57.786;12.080;2024-02-04T21:25:23;11.00;;;1.93;;
13483;SDS011;6814;57.786;12.080;2024-02-04T21:27:50;9.20;;;1.67;;
13483;SDS011;6814;57.786;12.080;2024-02-04T21:30:16;9.40;;;2.70;;
13483;SDS011;6814;57.786;12.080;2024-02-04T21:32:43;6.27;;;1.97;;
13483;SDS011;6814;57.786;12.080;2024-02-04T21:35:14;11.17;;;1.83;;
13483;SDS011;6814;57.786;12.080;2024-02-04T21:37:42;12.73;;;2.60;;
13483;SDS011;6814;57.786;12.080;2024-02-04T21:40:09;14.70;;;2.20;;
13483;SDS011;6814;57.786;12.080;2024-02-04T21:42:36;12.67;;;2.57;;
13483;SDS011;6814;57.786;12.080;2024-02-04T21:45:04;14.03;;;3.20;;
13483;SDS011;6814;57.786;12.080;2024-02-04T21:47:31;12.93;;;2.43;;
13483;SDS011;6814;57.786;12.080;2024-02-04T21:49:57;11.47;;;2.33;;
13483;SDS011;6814;57.786;12.080;2024-02-04T21:52:25;14.27;;;2.87;;
13483;SDS011;6814;57.786;12.080;2024-02-04T21:54:53;7.80;;;2.20;;
13483;SDS011;6814;57.786;12.080;2024-02-04T21:57:20;8.03;;;2.33;;
13483;SDS011;6814;57.786;12.080;2024-02-04T21:59:46;7.10;;;1.97;;
13483;SDS011;6814;57.786;12.080;2024-02-04T22:02:13;12.33;;;2.43;;
13483;SDS011;6814;57.786;12.080;2024-02-04T22:04:39;12.30;;;2.37;;
13483;SDS011;6814;57.786;12.080;2024-02-04T22:07:06;11.27;;;2.30;;
13483;SDS011;6814;57.786;12.080;2024-02-04T22:09:32;18.07;;;3.97;;
13483;SDS011;6814;57.786;12.080;2024-02-04T22:12:00;7.17;;;2.47;;
13483;SDS011;6814;57.786;12.080;2024-02-04T22:14:27;13.37;;;2.60;;
13483;SDS011;6814;57.786;12.080;2024-02-04T22:16:54;12.27;;;2.60;;
13483;SDS011;6814;57.786;12.080;2024-02-04T22:19:20;12.57;;;2.83;;
13483;SDS011;6814;57.786;12.080;2024-02-04T22:21:48;12.33;;;2.60;;
13483;SDS011;6814;57.786;12.080;2024-02-04T22:24:14;12.43;;;2.67;;
13483;SDS011;6814;57.786;12.080;2024-02-04T22:26:41;17.03;;;2.83;;
13483;SDS011;6814;57.786;12.080;2024-02-04T22:29:09;6.33;;;2.13;;
13483;SDS011;6814;57.786;12.080;2024-02-04T22:31:35;13.33;;;3.37;;
13483;SDS011;6814;57.786;12.080;2024-02-04T22:34:03;16.03;;;2.80;;
13483;SDS011;6814;57.786;12.080;2024-02-04T22:36:32;10.07;;;1.93;;
13483;SDS011;6814;57.786;12.080;2024-02-04T22:38:58;7.97;;;2.40;;
13483;SDS011;6814;57.786;12.080;2024-02-04T22:41:25;13.20;;;2.83;;
13483;SDS011;6814;57.786;12.080;2024-02-04T22:43:51;15.60;;;2.83;;
13483;SDS011;6814;57.786;12.080;2024-02-04T22:46:20;15.73;;;3.00;;
13483;SDS011;6814;57.786;12.080;2024-02-04T22:48:46;7.23;;;2.00;;
13483;SDS011;6814;57.786;12.080;2024-02-04T22:51:13;11.47;;;2.90;;
13483;SDS011;6814;57.786;12.080;2024-02-04T22:53:40;17.80;;;3.27;;
13483;SDS011;6814;57.786;12.080;2024-02-04T22:56:07;14.33;;;2.77;;
13483;SDS011;6814;57.786;12.080;2024-02-04T22:58:34;13.03;;;3.10;;
13483;SDS011;6814;57.786;12.080;2024-02-04T23:01:00;11.33;;;3.43;;
13483;SDS011;6814;57.786;12.080;2024-02-04T23:03:28;12.10;;;2.90;;
13483;SDS011;6814;57.786;12.080;2024-02-04T23:05:55;14.77;;;3.23;;
13483;SDS011;6814;57.786;12.080;2024-02-04T23:08:21;13.30;;;2.70;;
13483;SDS011;6814;57.786;12.080;2024-02-04T23:10:48;12.17;;;3.13;;
13483;SDS011;6814;57.786;12.080;2024-02-04T23:13:14;12.80;;;3.23;;
13483;SDS011;6814;57.786;12.080;2024-02-04T23:15:41;10.70;;;2.43;;
13483;SDS011;6814;57.786;12.080;2024-02-04T23:18:10;14.27;;;2.87;;
13483;SDS011;6814;57.786;12.080;2024-02-04T23:20:38;13.87;;;3.03;;
13483;SDS011;6814;57.786;12.080;2024-02-04T23:23:04;15.40;;;3.03;;
13483;SDS011;6814;57.786;12.080;2024-02-04T23:25:31;15.53;;;3.27;;
13483;SDS011;6814;57.786;12.080;2024-02-04T23:27:57;11.80;;;2.93;;
13483;SDS011;6814;57.786;12.080;2024-02-04T23:30:24;9.70;;;2.10;;
13483;SDS011;6814;57.786;12.080;2024-02-04T23:32:50;13.00;;;2.40;;
13483;SDS011;6814;57.786;12.080;2024-02-04T23:35:17;12.37;;;2.97;;
13483;SDS011;6814;57.786;12.080;2024-02-04T23:37:45;11.53;;;2.10;;
13483;SDS011;6814;57.786;12.080;2024-02-04T23:40:12;12.67;;;2.47;;
13483;SDS011;6814;57.786;12.080;2024-02-04T23:42:39;12.50;;;2.93;;
13483;SDS011;6814;57.786;12.080;2024-02-04T23:45:06;13.33;;;2.47;;
13483;SDS011;6814;57.786;12.080;2024-02-04T23:47:33;13.57;;;2.43;;
13483;SDS011;6814;57.786;12.080;2024-02-04T23:50:00;13.93;;;2.73;;
13483;SDS011;6814;57.786;12.080;2024-02-04T23:52:26;13.73;;;2.67;;
13483;SDS011;6814;57.786;12.080;2024-02-04T23:54:55;15.23;;;2.50;;
13483;SDS011;6814;57.786;12.080;2024-02-04T23:57:23;6.60;;;1.83;;
13483;SDS011;6814;57.786;12.080;2024-02-04T23:59:49;13.37;;;2.50;;
